Time;durP1;ratioP1;P1;durP2;ratioP2;P2;SDS_P1;SDS_P2;PMS_P1;PMS_P2;Temp;Humidity;BMP_temperature;BMP_pressure;BME280_temperature;BME280_humidity;BME280_pressure;Samples;Min_cycle;Max_cycle;Signal;HPM_P1;HPM_P2
2022/08/13 00:01:15;;;;;;;2.10;1.53;;;18.30;93.70;;;;;;5051664;28;20457;-70
2022/08/13 00:03:43;;;;;;;2.20;1.90;;;18.10;94.20;;;;;;5051736;28;20458;-69
2022/08/13 00:06:10;;;;;;;3.43;2.13;;;18.00;94.60;;;;;;5051529;28;20523;-70
2022/08/13 00:08:38;;;;;;;1.87;1.60;;;18.00;94.90;;;;;;5033983;28;20485;-70
2022/08/13 00:12:56;;;;;;;5.10;2.03;;;18.00;94.70;;;;;;5051579;28;20456;-70
2022/08/13 00:13:55;;;;;;;2.33;1.67;;;18.10;94.70;;;;;;5050937;28;20461;-70
2022/08/13 00:16:22;;;;;;;2.00;1.80;;;18.00;94.70;;;;;;5051633;28;20964;-70
2022/08/13 00:18:50;;;;;;;3.30;1.97;;;18.10;94.60;;;;;;5051673;28;20449;-70
2022/08/13 00:21:17;;;;;;;2.53;2.00;;;18.10;95.20;;;;;;5051421;28;20933;-69
2022/08/13 00:23:44;;;;;;;2.90;2.10;;;18.00;95.10;;;;;;5051327;28;20489;-70
2022/08/13 00:26:14;;;;;;;2.03;1.80;;;17.80;95.90;;;;;;5051411;28;20530;-70
2022/08/13 00:28:41;;;;;;;3.93;2.33;;;17.70;96.30;;;;;;5051139;28;20513;-70
2022/08/13 00:31:08;;;;;;;2.50;1.90;;;17.80;95.80;;;;;;5051129;28;20472;-70
2022/08/13 00:33:36;;;;;;;1.93;1.77;;;17.80;96.00;;;;;;5051397;28;20460;-70
2022/08/13 00:36:04;;;;;;;1.80;1.67;;;17.60;96.40;;;;;;5051085;28;20453;-70
2022/08/13 00:38:32;;;;;;;1.90;1.60;;;17.50;97.20;;;;;;5051410;28;20899;-70
2022/08/13 00:41:00;;;;;;;2.13;1.63;;;17.40;97.40;;;;;;5051136;28;20819;-69
2022/08/13 00:43:32;;;;;;;3.50;1.90;;;17.30;97.80;;;;;;5051036;28;20445;-70
2022/08/13 00:45:59;;;;;;;2.60;1.97;;;17.50;97.20;;;;;;5052863;28;20454;-69
2022/08/13 00:48:46;;;;;;;2.33;2.07;;;17.40;97.60;;;;;;5054846;28;20477;-69
2022/08/13 00:51:16;;;;;;;3.10;1.83;;;17.30;97.80;;;;;;5054844;28;20454;-70
2022/08/13 00:53:44;;;;;;;2.47;1.93;;;17.40;97.40;;;;;;5054850;28;20468;-69
2022/08/13 00:56:13;;;;;;;2.30;1.70;;;17.50;97.10;;;;;;5054737;28;20803;-69
2022/08/13 00:58:42;;;;;;;2.77;1.87;;;17.50;97.30;;;;;;5054841;28;20464;-69
2022/08/13 01:01:12;;;;;;;1.80;1.57;;;17.50;97.40;;;;;;5054717;28;20461;-69
2022/08/13 01:03:40;;;;;;;2.17;1.70;;;17.50;97.30;;;;;;5054849;28;20955;-69
2022/08/13 01:06:11;;;;;;;2.57;1.87;;;17.50;97.30;;;;;;5054560;28;20461;-69
2022/08/13 01:08:40;;;;;;;2.93;2.00;;;17.40;97.90;;;;;;5054650;28;20485;-69
2022/08/13 01:11:09;;;;;;;2.60;1.60;;;17.30;98.00;;;;;;5054553;28;20458;-69
2022/08/13 01:13:40;;;;;;;2.77;1.87;;;17.30;98.00;;;;;;5054700;28;20449;-70
2022/08/13 01:16:13;;;;;;;1.80;1.70;;;17.40;97.70;;;;;;5054255;28;20469;-70
2022/08/13 01:18:43;;;;;;;2.13;1.80;;;17.40;97.60;;;;;;5054568;28;20458;-69
2022/08/13 01:21:13;;;;;;;1.87;1.50;;;17.40;97.70;;;;;;5054248;28;20446;-70
2022/08/13 01:23:45;;;;;;;3.20;2.00;;;17.50;97.60;;;;;;5054307;28;20450;-69
2022/08/13 01:26:13;;;;;;;2.73;1.70;;;17.40;98.00;;;;;;5054264;28;20481;-70
2022/08/13 01:28:41;;;;;;;1.60;1.50;;;17.20;98.00;;;;;;5054164;28;20481;-70
2022/08/13 01:31:08;;;;;;;1.83;1.60;;;17.10;98.00;;;;;;5053880;28;20472;-69
2022/08/13 01:33:36;;;;;;;2.10;1.80;;;17.10;98.00;;;;;;5054133;28;21113;-69
2022/08/13 01:36:04;;;;;;;3.23;2.10;;;17.00;98.00;;;;;;5053782;28;20461;-69
2022/08/13 01:38:32;;;;;;;2.37;1.60;;;17.00;98.00;;;;;;5053898;28;20453;-69
2022/08/13 01:41:02;;;;;;;2.20;1.90;;;17.10;98.00;;;;;;5053855;28;20560;-69
2022/08/13 01:43:30;;;;;;;2.73;1.80;;;17.10;98.00;;;;;;5050479;28;20468;-70
2022/08/13 01:46:00;;;;;;;1.60;1.47;;;17.20;98.00;;;;;;5053758;28;20504;-69
2022/08/13 01:51:21;;;;;;;2.73;1.70;;;17.30;98.00;;;;;;5053826;28;20445;-70
2022/08/13 01:53:49;;;;;;;2.30;1.90;;;17.20;98.00;;;;;;5053983;28;20570;-69
2022/08/13 01:56:21;;;;;;;2.40;1.67;;;16.90;98.00;;;;;;5053580;28;20485;-69
2022/08/13 01:58:50;;;;;;;2.00;1.60;;;16.80;98.00;;;;;;5053723;28;20511;-69
2022/08/13 02:01:18;;;;;;;2.73;1.90;;;16.70;98.00;;;;;;5036109;28;20984;-69
2022/08/13 02:03:48;;;;;;;2.87;2.00;;;16.50;98.00;;;;;;5053766;28;20450;-69
2022/08/13 02:06:20;;;;;;;3.17;2.13;;;16.20;98.00;;;;;;5035747;28;20456;-70
2022/08/13 02:08:51;;;;;;;2.17;1.80;;;16.20;98.00;;;;;;5053528;28;20481;-70
2022/08/13 02:11:20;;;;;;;2.17;1.60;;;16.40;98.00;;;;;;5053623;28;20515;-70
2022/08/13 02:13:48;;;;;;;2.90;1.70;;;16.50;98.00;;;;;;5053478;28;20461;-69
2022/08/13 02:16:16;;;;;;;2.13;1.57;;;16.40;98.00;;;;;;5053469;28;20464;-69
2022/08/13 02:18:43;;;;;;;2.17;1.60;;;16.20;98.00;;;;;;5053445;28;20458;-69
2022/08/13 02:21:13;;;;;;;2.10;1.60;;;16.20;98.00;;;;;;5053038;28;20450;-69
2022/08/13 02:23:40;;;;;;;2.33;1.83;;;16.30;98.00;;;;;;5053378;28;21040;-69
2022/08/13 02:26:08;;;;;;;3.20;1.93;;;16.50;98.00;;;;;;5052853;28;20450;-70
2022/08/13 02:28:39;;;;;;;1.80;1.70;;;16.60;98.00;;;;;;5052961;28;20484;-70
2022/08/13 02:31:08;;;;;;;4.80;2.17;;;16.70;98.00;;;;;;5052738;28;20886;-69
2022/08/13 02:33:37;;;;;;;2.63;1.90;;;16.60;98.00;;;;;;5052830;28;20454;-69
2022/08/13 02:36:10;;;;;;;2.40;1.60;;;16.40;98.00;;;;;;5052680;28;20481;-69
2022/08/13 02:38:38;;;;;;;1.50;1.30;;;16.30;98.00;;;;;;5052743;28;20543;-69
2022/08/13 02:43:52;;;;;;;2.30;1.40;;;16.00;98.00;;;;;;5052530;28;20507;-69
2022/08/13 02:46:21;;;;;;;1.60;1.40;;;16.00;98.00;;;;;;5052427;28;20450;-69
2022/08/13 02:48:52;;;;;;;2.20;1.63;;;16.10;98.00;;;;;;5052354;28;20489;-69
2022/08/13 02:51:20;;;;;;;1.80;1.57;;;16.20;98.00;;;;;;5052660;28;20458;-69
2022/08/13 02:53:47;;;;;;;2.57;1.90;;;16.00;98.00;;;;;;5052534;28;20458;-69
2022/08/13 02:56:15;;;;;;;2.10;1.80;;;15.80;98.00;;;;;;5052651;28;20519;-69
2022/08/13 02:58:43;;;;;;;2.93;1.80;;;15.70;98.00;;;;;;5052537;28;20959;-69
2022/08/13 03:01:12;;;;;;;2.10;1.40;;;15.60;98.00;;;;;;5052450;28;20468;-69
2022/08/13 03:03:39;;;;;;;3.13;1.80;;;15.70;98.00;;;;;;5052523;28;20450;-69
2022/08/13 03:06:08;;;;;;;1.93;1.60;;;15.60;98.00;;;;;;5052514;28;20460;-69
2022/08/13 03:08:36;;;;;;;2.20;1.63;;;15.60;98.00;;;;;;5052030;28;20522;-69
2022/08/13 03:11:03;;;;;;;2.90;1.90;;;15.70;98.00;;;;;;5052372;28;20530;-69
2022/08/13 03:13:36;;;;;;;2.17;2.00;;;15.60;98.00;;;;;;5052603;28;20511;-69
2022/08/13 03:16:05;;;;;;;2.37;1.60;;;15.70;98.00;;;;;;5052380;28;20461;-69
2022/08/13 03:18:34;;;;;;;3.10;1.70;;;15.60;98.00;;;;;;5052487;28;20467;-69
2022/08/13 03:21:01;;;;;;;2.30;1.87;;;15.60;98.00;;;;;;5052037;28;20458;-69
2022/08/13 03:23:31;;;;;;;1.70;1.60;;;15.60;98.00;;;;;;5052264;28;20461;-69
2022/08/13 03:25:58;;;;;;;2.17;1.77;;;15.70;98.00;;;;;;5051839;28;20454;-69
2022/08/13 03:28:25;;;;;;;2.87;1.70;;;15.50;98.00;;;;;;5052090;28;20454;-69
2022/08/13 03:30:53;;;;;;;2.13;1.60;;;15.40;98.00;;;;;;5051789;28;20497;-69
2022/08/13 03:33:20;;;;;;;2.33;2.00;;;15.40;98.00;;;;;;5051890;28;20465;-69
2022/08/13 03:35:48;;;;;;;2.63;1.70;;;15.40;98.00;;;;;;5051652;28;20461;-69
2022/08/13 03:38:16;;;;;;;2.57;2.00;;;15.50;98.00;;;;;;5051860;28;20799;-69
2022/08/13 03:43:28;;;;;;;2.37;1.83;;;15.60;98.00;;;;;;5051917;28;20448;-69
2022/08/13 03:45:57;;;;;;;1.60;1.57;;;15.50;98.00;;;;;;5051622;28;20477;-69
2022/08/13 03:48:24;;;;;;;3.80;2.43;;;15.40;98.00;;;;;;5051190;28;20477;-69
2022/08/13 03:50:53;;;;;;;1.70;1.60;;;15.40;98.00;;;;;;5050791;28;20489;-69
2022/08/13 03:53:21;;;;;;;1.83;1.57;;;15.40;98.00;;;;;;5051070;28;20468;-69
2022/08/13 03:55:48;;;;;;;1.83;1.70;;;15.30;98.00;;;;;;5050980;28;20987;-69
2022/08/13 03:58:17;;;;;;;2.13;1.93;;;15.20;98.00;;;;;;5050972;28;20956;-69
2022/08/13 04:00:47;;;;;;;3.00;1.83;;;15.00;98.00;;;;;;5050643;28;20458;-69
2022/08/13 04:03:19;;;;;;;1.80;1.60;;;15.00;98.00;;;;;;5050952;28;20481;-69
2022/08/13 04:05:46;;;;;;;2.23;1.80;;;15.00;98.00;;;;;;5050997;28;20457;-69
2022/08/13 04:08:15;;;;;;;2.30;1.67;;;15.00;98.00;;;;;;5051064;28;20465;-69
2022/08/13 04:10:43;;;;;;;1.70;1.57;;;14.90;98.00;;;;;;5051524;28;20493;-70
2022/08/13 04:13:16;;;;;;;2.23;1.70;;;14.90;98.00;;;;;;5051780;28;20469;-69
2022/08/13 04:15:43;;;;;;;2.70;1.90;;;14.80;98.00;;;;;;5051786;28;20453;-69
2022/08/13 04:18:12;;;;;;;2.07;1.73;;;14.80;98.00;;;;;;5051814;28;20457;-69
2022/08/13 04:20:43;;;;;;;2.30;1.77;;;14.80;98.00;;;;;;5052837;28;20551;-69
2022/08/13 04:23:16;;;;;;;2.97;1.70;;;14.80;98.00;;;;;;5055325;28;20452;-69
2022/08/13 04:25:44;;;;;;;1.90;1.60;;;14.70;98.00;;;;;;5055611;28;20465;-69
2022/08/13 04:28:11;;;;;;;2.67;1.80;;;14.70;98.00;;;;;;5055111;28;20974;-69
2022/08/13 04:30:40;;;;;;;2.70;1.73;;;14.90;98.00;;;;;;5055206;28;20517;-69
2022/08/13 04:33:11;;;;;;;2.00;1.60;;;15.00;98.00;;;;;;5055202;28;20541;-69
2022/08/13 04:35:39;;;;;;;1.90;1.70;;;15.20;98.00;;;;;;5055116;28;21016;-69
2022/08/13 04:38:07;;;;;;;2.53;1.90;;;15.30;98.00;;;;;;5055147;28;20453;-69
2022/08/13 04:40:38;;;;;;;1.93;1.60;;;15.40;98.00;;;;;;5037123;28;20462;-69
2022/08/13 04:43:06;;;;;;;2.20;1.60;;;15.50;98.00;;;;;;5055084;28;20962;-69
2022/08/13 04:45:35;;;;;;;2.77;2.03;;;15.30;98.00;;;;;;5035838;28;20817;-69
2022/08/13 04:48:07;;;;;;;2.53;1.80;;;15.10;98.00;;;;;;5054933;28;20979;-69
2022/08/13 04:50:35;;;;;;;2.03;1.70;;;14.90;98.00;;;;;;5054794;28;20485;-69
2022/08/13 04:53:03;;;;;;;2.40;1.90;;;14.90;98.00;;;;;;5054798;28;20454;-69
2022/08/13 04:55:31;;;;;;;1.53;1.40;;;14.90;98.00;;;;;;5054752;28;20453;-69
2022/08/13 04:57:59;;;;;;;1.97;1.77;;;15.00;98.00;;;;;;5054734;28;20951;-69
2022/08/13 05:00:32;;;;;;;2.57;2.07;;;15.20;98.00;;;;;;5054841;28;20490;-69
2022/08/13 05:03:08;;;;;;;3.00;2.10;;;15.30;98.00;;;;;;5054464;28;20476;-69
2022/08/13 05:05:36;;;;;;;1.83;1.63;;;15.30;98.00;;;;;;5054603;28;20454;-69
2022/08/13 05:08:05;;;;;;;3.97;1.70;;;15.10;98.00;;;;;;5054709;28;20557;-69
2022/08/13 05:10:32;;;;;;;3.57;1.97;;;15.20;98.00;;;;;;5054584;28;20485;-69
2022/08/13 05:13:02;;;;;;;2.47;1.87;;;15.30;98.00;;;;;;5054785;28;20458;-69
2022/08/13 05:15:29;;;;;;;2.00;1.63;;;15.20;98.00;;;;;;5054523;28;20991;-69
2022/08/13 05:17:57;;;;;;;2.80;1.70;;;15.20;98.00;;;;;;5054451;28;20450;-69
2022/08/13 05:20:24;;;;;;;1.67;1.47;;;15.20;98.00;;;;;;5054256;28;20460;-69
2022/08/13 05:22:51;;;;;;;2.83;2.00;;;15.00;98.00;;;;;;5054299;28;20454;-69
2022/08/13 05:25:18;;;;;;;4.63;2.00;;;15.10;98.00;;;;;;5054140;28;20464;-69
2022/08/13 05:27:45;;;;;;;2.83;1.97;;;15.20;98.00;;;;;;5054207;28;20543;-69
2022/08/13 05:30:14;;;;;;;2.23;1.83;;;15.20;98.00;;;;;;5054062;28;20488;-69
2022/08/13 05:32:41;;;;;;;2.67;1.97;;;15.10;98.00;;;;;;5053518;28;20458;-69
2022/08/13 05:35:11;;;;;;;2.83;1.90;;;15.10;98.00;;;;;;5053743;28;20450;-69
2022/08/13 05:37:39;;;;;;;3.23;1.97;;;15.10;98.00;;;;;;5054032;28;20454;-69
2022/08/13 05:40:08;;;;;;;3.07;2.17;;;15.10;98.00;;;;;;5053952;28;20967;-69
2022/08/13 05:42:39;;;;;;;2.80;2.30;;;15.20;98.00;;;;;;5053995;28;20519;-69
2022/08/13 05:45:08;;;;;;;3.00;2.37;;;15.40;98.00;;;;;;5053712;28;20457;-69
2022/08/13 05:47:37;;;;;;;2.53;2.00;;;15.40;98.00;;;;;;5053880;28;20512;-69
2022/08/13 05:50:13;;;;;;;2.50;2.10;;;15.40;98.00;;;;;;5053710;28;20486;-69
2022/08/13 05:52:41;;;;;;;2.43;1.97;;;15.40;98.00;;;;;;5053751;28;20460;-69
2022/08/13 05:55:11;;;;;;;2.90;1.83;;;15.70;98.00;;;;;;5053752;28;20951;-69
2022/08/13 05:57:39;;;;;;;2.83;2.50;;;15.90;98.00;;;;;;5053645;28;20860;-69
2022/08/13 06:05:46;;;;;;;2.40;1.90;;;16.50;98.00;;;;;;5053758;28;20472;-69
2022/08/13 06:08:17;;;;;;;3.03;1.80;;;16.70;98.00;;;;;;5053118;28;20622;-69
2022/08/13 06:10:48;;;;;;;2.40;1.93;;;16.80;98.00;;;;;;5052750;28;20543;-69
2022/08/13 06:13:16;;;;;;;2.53;2.23;;;17.00;98.00;;;;;;5053099;28;20462;-69
2022/08/13 06:15:44;;;;;;;2.70;1.70;;;17.10;98.00;;;;;;5052892;28;20454;-69
2022/08/13 06:18:13;;;;;;;3.20;2.30;;;17.20;98.00;;;;;;5052580;28;20814;-69
2022/08/13 06:20:49;;;;;;;5.00;2.10;;;17.40;98.00;;;;;;5052462;28;20453;-69
2022/08/13 06:23:16;;;;;;;3.80;2.13;;;17.50;98.00;;;;;;5052541;28;20461;-68
2022/08/13 06:25:52;;;;;;;2.43;2.00;;;17.70;98.00;;;;;;5052346;28;20496;-69
2022/08/13 06:28:22;;;;;;;6.73;2.53;;;17.80;98.00;;;;;;5052434;28;20815;-67
2022/08/13 06:30:50;;;;;;;3.40;2.50;;;17.90;98.00;;;;;;5034384;28;20489;-67
2022/08/13 06:33:22;;;;;;;2.97;1.87;;;18.00;98.00;;;;;;5051933;28;20457;-68
2022/08/13 06:35:50;;;;;;;3.83;2.17;;;18.20;98.00;;;;;;5052168;28;20470;-67
2022/08/13 06:38:19;;;;;;;3.70;2.23;;;18.00;98.00;;;;;;5052216;28;20519;-67
2022/08/13 06:40:47;;;;;;;3.07;2.03;;;18.10;98.00;;;;;;5051889;28;20450;-68
2022/08/13 06:43:23;;;;;;;2.80;2.17;;;18.20;98.00;;;;;;5051115;28;20453;-69
2022/08/13 06:45:50;;;;;;;2.63;2.20;;;18.20;98.00;;;;;;5051926;28;20500;-67
2022/08/13 06:48:19;;;;;;;5.40;2.80;;;18.30;98.00;;;;;;5052105;28;20458;-67
2022/08/13 06:50:46;;;;;;;3.97;2.50;;;18.40;98.00;;;;;;5051735;28;21007;-68
2022/08/13 06:53:15;;;;;;;3.43;2.40;;;18.60;98.00;;;;;;5051984;28;20442;-67
2022/08/13 06:55:44;;;;;;;2.80;2.03;;;18.70;98.00;;;;;;5051946;28;20533;-66
2022/08/13 06:58:12;;;;;;;3.00;2.13;;;18.80;98.00;;;;;;5051739;28;20578;-68
2022/08/13 07:00:41;;;;;;;3.30;2.23;;;18.90;98.00;;;;;;5051809;28;20853;-67
2022/08/13 07:03:09;;;;;;;2.57;2.13;;;18.80;98.00;;;;;;5051686;28;20465;-67
2022/08/13 07:05:41;;;;;;;2.63;1.90;;;18.90;98.00;;;;;;5051680;28;20457;-67
2022/08/13 07:08:11;;;;;;;3.10;2.20;;;19.10;98.00;;;;;;5051507;28;20461;-68
2022/08/13 07:10:43;;;;;;;3.30;2.13;;;19.20;97.60;;;;;;5051583;28;20579;-67
2022/08/13 07:13:10;;;;;;;2.80;1.90;;;19.40;96.80;;;;;;5051730;28;20466;-67
2022/08/13 07:15:37;;;;;;;2.90;2.20;;;19.60;96.30;;;;;;5051581;28;20453;-68
2022/08/13 07:18:06;;;;;;;2.90;1.80;;;19.70;95.50;;;;;;5051324;28;20869;-67
2022/08/13 07:20:34;;;;;;;3.20;2.17;;;19.80;95.70;;;;;;5051403;28;20458;-67
2022/08/13 07:23:02;;;;;;;2.40;1.90;;;19.80;95.40;;;;;;5051335;28;20461;-67
2022/08/13 07:25:30;;;;;;;2.63;2.10;;;19.90;95.40;;;;;;5061985;28;20858;-67
2022/08/13 07:27:58;;;;;;;3.40;2.40;;;20.00;95.20;;;;;;5068289;28;20457;-67
2022/08/13 07:30:26;;;;;;;3.50;2.40;;;20.20;94.40;;;;;;5068313;28;20531;-69
2022/08/13 07:32:54;;;;;;;3.23;2.27;;;20.30;93.70;;;;;;5068288;28;20465;-68
2022/08/13 07:35:23;;;;;;;4.77;2.50;;;20.40;94.50;;;;;;5068435;28;20827;-68
2022/08/13 07:37:52;;;;;;;3.20;2.33;;;20.50;94.10;;;;;;5050565;28;20457;-68
2022/08/13 07:40:21;;;;;;;3.60;2.37;;;20.70;93.60;;;;;;5071361;28;20510;-68
2022/08/13 07:42:49;;;;;;;4.57;2.83;;;20.80;93.50;;;;;;5071072;28;20468;-67
2022/08/13 07:45:24;;;;;;;4.43;2.40;;;21.00;92.90;;;;;;5070848;28;20508;-67
2022/08/13 07:47:52;;;;;;;4.13;2.67;;;21.10;92.80;;;;;;5071031;28;20460;-68
2022/08/13 07:50:20;;;;;;;3.97;2.50;;;21.30;93.20;;;;;;5071269;28;20561;-70
2022/08/13 07:52:52;;;;;;;3.90;2.70;;;21.50;91.80;;;;;;5071913;28;20453;-68
2022/08/13 07:55:24;;;;;;;3.07;2.20;;;21.60;91.20;;;;;;5074495;28;20518;-68
2022/08/13 07:57:51;;;;;;;3.90;2.70;;;21.60;91.50;;;;;;5075938;28;20954;-66
2022/08/13 08:00:21;;;;;;;3.13;2.30;;;21.80;92.00;;;;;;5075995;28;20452;-69
2022/08/13 08:02:53;;;;;;;2.90;2.23;;;21.90;90.40;;;;;;5075931;28;20449;-68
2022/08/13 08:05:24;;;;;;;5.50;2.60;;;22.00;90.70;;;;;;5075921;28;20580;-68
2022/08/13 08:07:52;;;;;;;3.53;2.43;;;22.20;90.10;;;;;;5074946;28;20449;-67
2022/08/13 08:10:21;;;;;;;3.57;2.30;;;22.30;89.40;;;;;;5075660;28;20477;-67
2022/08/13 08:12:47;;;;;;;3.50;2.40;;;22.40;89.30;;;;;;5074365;28;20449;-67
2022/08/13 08:15:16;;;;;;;3.17;2.43;;;22.40;89.50;;;;;;5075532;28;20460;-67
2022/08/13 08:17:43;;;;;;;2.47;1.93;;;22.40;88.90;;;;;;5075385;28;20467;-67
2022/08/13 08:20:21;;;;;;;3.50;2.33;;;22.50;89.30;;;;;;5075323;28;20460;-68
2022/08/13 08:22:49;;;;;;;4.03;2.60;;;22.60;89.00;;;;;;5075411;28;20484;-68
2022/08/13 08:25:18;;;;;;;3.50;2.23;;;22.60;88.90;;;;;;5075234;28;20946;-68
2022/08/13 08:27:47;;;;;;;3.47;2.40;;;22.70;87.80;;;;;;5075110;28;20453;-67
2022/08/13 08:30:17;;;;;;;3.50;2.70;;;22.70;87.50;;;;;;5074983;28;20453;-68
2022/08/13 08:32:45;;;;;;;3.30;2.50;;;22.80;87.90;;;;;;5074925;28;20465;-69
2022/08/13 08:35:13;;;;;;;3.10;2.33;;;22.90;88.20;;;;;;5075179;28;20468;-67
2022/08/13 08:43:13;;;;;;;2.97;2.30;;;23.50;86.20;;;;;;5075165;28;20972;-68
2022/08/13 08:45:41;;;;;;;3.53;2.30;;;23.80;86.10;;;;;;5075012;28;20472;-67
2022/08/13 08:48:08;;;;;;;3.93;2.63;;;24.10;84.80;;;;;;5075004;28;20452;-68
2022/08/13 08:50:36;;;;;;;2.83;2.10;;;24.30;83.70;;;;;;5075062;28;20480;-67
2022/08/13 08:53:21;;;;;;;3.30;2.47;;;24.40;82.90;;;;;;5074922;28;20460;-67
2022/08/13 08:55:50;;;;;;;2.80;2.30;;;24.40;83.70;;;;;;5074928;28;20456;-67
2022/08/13 08:58:20;;;;;;;2.97;2.23;;;24.40;83.40;;;;;;5074639;28;20460;-68
2022/08/13 09:00:48;;;;;;;3.37;2.27;;;24.50;82.70;;;;;;5074682;28;20457;-68
2022/08/13 09:03:18;;;;;;;3.33;2.47;;;24.70;82.50;;;;;;5074443;28;20452;-65
2022/08/13 09:05:47;;;;;;;2.67;2.10;;;24.80;82.40;;;;;;5083988;28;20452;-67
2022/08/13 09:08:16;;;;;;;3.07;2.30;;;24.90;81.50;;;;;;5085471;28;20480;-67
2022/08/13 09:10:47;;;;;;;3.10;2.40;;;25.10;81.40;;;;;;5090093;28;20476;-67
2022/08/13 09:13:19;;;;;;;4.60;3.33;;;25.50;80.90;;;;;;5094799;28;20805;-67
2022/08/13 09:15:51;;;;;;;5.10;2.73;;;25.70;79.60;;;;;;5094535;28;20452;-67
2022/08/13 09:18:21;;;;;;;4.13;2.60;;;25.70;78.90;;;;;;5094709;28;20459;-66
2022/08/13 09:20:49;;;;;;;4.77;2.63;;;25.70;78.70;;;;;;5094449;28;20806;-61
2022/08/13 09:23:17;;;;;;;2.93;2.30;;;25.70;79.30;;;;;;5094388;28;20483;-62
2022/08/13 09:25:51;;;;;;;2.93;2.27;;;25.70;78.50;;;;;;5094560;28;20452;-63
2022/08/13 09:28:23;;;;;;;2.50;2.00;;;25.60;78.40;;;;;;5094330;28;20544;-61
2022/08/13 09:30:52;;;;;;;3.97;2.50;;;25.40;78.50;;;;;;5094153;28;20480;-62
2022/08/13 09:33:21;;;;;;;3.17;2.43;;;25.40;78.90;;;;;;5094309;28;20456;-62
2022/08/13 09:35:49;;;;;;;2.67;2.07;;;25.40;79.10;;;;;;5059844;28;20980;-63
2022/08/13 09:38:20;;;;;;;2.33;1.93;;;25.50;78.90;;;;;;5093780;28;20502;-62
2022/08/13 09:40:51;;;;;;;2.77;2.30;;;25.50;78.70;;;;;;5093782;28;20452;-63
2022/08/13 09:43:22;;;;;;;2.47;2.03;;;25.60;79.00;;;;;;5093818;28;20550;-62
2022/08/13 09:45:51;;;;;;;3.20;2.50;;;25.60;78.00;;;;;;5094132;28;20529;-63
2022/08/13 09:48:18;;;;;;;3.87;2.20;;;25.70;77.50;;;;;;5093670;28;20448;-62
2022/08/13 09:50:46;;;;;;;3.60;2.50;;;25.80;78.10;;;;;;5094125;28;20479;-62
2022/08/13 09:53:14;;;;;;;2.87;2.13;;;25.90;77.70;;;;;;5093679;28;20451;-63
2022/08/13 09:55:41;;;;;;;5.10;2.73;;;26.10;77.70;;;;;;5094119;28;20459;-63
2022/08/13 09:58:10;;;;;;;3.17;2.40;;;26.20;77.40;;;;;;5093776;28;20474;-63
2022/08/13 10:00:40;;;;;;;3.07;2.40;;;26.40;77.20;;;;;;5094071;28;20456;-63
2022/08/13 10:03:10;;;;;;;4.00;2.50;;;26.70;76.10;;;;;;5093572;28;20551;-62
2022/08/13 10:05:38;;;;;;;2.70;2.30;;;27.00;76.20;;;;;;5090717;28;20475;-62
2022/08/13 10:08:07;;;;;;;3.20;2.30;;;27.40;73.50;;;;;;5088553;28;20455;-63
2022/08/13 10:10:35;;;;;;;2.57;2.10;;;27.80;72.70;;;;;;5093408;28;20459;-62
2022/08/13 10:13:03;;;;;;;2.63;1.93;;;27.90;71.70;;;;;;5093493;28;20539;-61
2022/08/13 10:15:31;;;;;;;3.60;2.40;;;27.90;70.80;;;;;;5075971;28;20534;-61
2022/08/13 10:18:02;;;;;;;2.80;2.50;;;28.00;70.80;;;;;;5093311;28;20448;-68
2022/08/13 10:20:33;;;;;;;3.80;2.20;;;28.30;69.80;;;;;;5093683;28;20484;-68
2022/08/13 10:23:02;;;;;;;3.90;2.50;;;28.40;69.50;;;;;;5093156;28;20455;-69
2022/08/13 10:25:30;;;;;;;3.13;2.20;;;28.70;69.40;;;;;;5093396;28;20463;-67
2022/08/13 10:27:57;;;;;;;3.33;2.20;;;29.00;68.30;;;;;;5093211;28;20942;-68
2022/08/13 10:30:27;;;;;;;2.33;2.07;;;29.10;67.50;;;;;;5093041;28;20826;-67
2022/08/13 10:32:56;;;;;;;2.63;2.30;;;29.30;67.40;;;;;;5093043;28;20511;-69
2022/08/13 10:35:24;;;;;;;2.57;2.27;;;29.40;66.40;;;;;;5093134;28;20460;-67
2022/08/13 10:37:54;;;;;;;2.47;2.00;;;29.70;65.60;;;;;;5092908;28;20466;-68
2022/08/13 10:40:22;;;;;;;2.77;2.10;;;29.90;65.00;;;;;;5093238;28;20463;-68
2022/08/13 10:42:51;;;;;;;3.30;2.20;;;30.00;65.40;;;;;;5075030;28;20860;-70
2022/08/13 10:45:20;;;;;;;2.57;2.10;;;30.00;64.80;;;;;;5092875;28;20494;-68
2022/08/13 10:47:48;;;;;;;3.30;2.40;;;30.20;64.90;;;;;;5092177;28;20585;-74
2022/08/13 10:50:16;;;;;;;9.63;2.83;;;30.30;64.90;;;;;;5092910;28;20209;-73
2022/08/13 10:52:44;;;;;;;2.97;2.30;;;30.20;64.20;;;;;;5092683;28;20487;-74
2022/08/13 10:55:14;;;;;;;3.47;2.40;;;30.30;64.30;;;;;;5092852;28;21112;-74
2022/08/13 10:57:43;;;;;;;2.90;2.40;;;30.60;64.50;;;;;;5092677;28;20458;-74
2022/08/13 11:00:13;;;;;;;2.07;1.80;;;30.70;62.90;;;;;;5092700;28;20462;-73
2022/08/13 11:02:41;;;;;;;2.67;2.13;;;30.70;62.60;;;;;;5092763;28;20452;-74
2022/08/13 11:05:11;;;;;;;2.47;2.10;;;30.80;62.50;;;;;;5092813;28;20456;-74
2022/08/13 11:07:39;;;;;;;2.10;1.87;;;31.00;61.90;;;;;;5092416;28;20448;-74
2022/08/13 11:10:10;;;;;;;3.03;2.20;;;31.00;61.50;;;;;;5092363;28;20472;-73
2022/08/13 11:12:42;;;;;;;3.10;2.10;;;31.10;61.60;;;;;;5092349;28;20490;-74
2022/08/13 11:15:10;;;;;;;2.50;2.00;;;31.30;62.10;;;;;;5092535;28;20458;-74
2022/08/13 11:17:37;;;;;;;2.80;2.30;;;31.60;61.50;;;;;;5092231;28;20459;-73
2022/08/13 11:20:13;;;;;;;2.87;2.20;;;31.70;60.40;;;;;;5092494;28;20467;-74
2022/08/13 11:22:41;;;;;;;2.67;2.10;;;31.60;60.40;;;;;;5092341;28;20451;-74
2022/08/13 11:25:10;;;;;;;3.07;2.03;;;31.70;59.80;;;;;;5092288;28;20448;-75
2022/08/13 11:27:39;;;;;;;2.60;2.10;;;31.70;60.30;;;;;;5092342;28;20866;-74
2022/08/13 11:30:07;;;;;;;2.77;2.03;;;31.70;60.70;;;;;;5091772;28;20462;-74
2022/08/13 11:32:34;;;;;;;3.33;2.20;;;31.90;59.70;;;;;;5092140;28;20480;-74
2022/08/13 11:35:02;;;;;;;1.93;1.73;;;32.00;59.20;;;;;;5091880;28;20457;-73
2022/08/13 11:37:30;;;;;;;3.27;2.30;;;32.20;59.00;;;;;;5091898;28;20459;-74
2022/08/13 11:39:57;;;;;;;3.20;2.53;;;32.50;58.20;;;;;;5092229;28;20464;-74
2022/08/13 11:42:24;;;;;;;2.80;2.23;;;32.70;57.60;;;;;;5092014;28;20456;-73
2022/08/13 11:44:52;;;;;;;2.70;2.20;;;32.80;57.50;;;;;;5091759;28;20464;-73
2022/08/13 11:47:21;;;;;;;2.90;2.40;;;32.80;57.00;;;;;;5091970;28;20918;-73
2022/08/13 11:49:48;;;;;;;3.20;2.23;;;33.00;56.90;;;;;;5091944;28;20476;-74
2022/08/13 11:52:15;;;;;;;2.80;2.20;;;33.00;56.00;;;;;;5073898;28;20496;-73
2022/08/13 11:54:42;;;;;;;2.47;2.00;;;33.10;56.90;;;;;;5091449;28;20459;-73
2022/08/13 11:57:10;;;;;;;3.80;2.40;;;33.20;56.50;;;;;;5091287;28;20464;-74
2022/08/13 11:59:38;;;;;;;2.83;2.10;;;33.00;56.00;;;;;;5091186;28;20456;-73
2022/08/13 12:02:06;;;;;;;2.27;1.90;;;32.90;56.50;;;;;;5091155;28;20440;-75
2022/08/13 12:04:36;;;;;;;3.00;2.20;;;33.10;56.10;;;;;;5090212;28;20452;-74
2022/08/13 12:07:04;;;;;;;2.93;2.30;;;33.10;56.10;;;;;;5091365;28;20442;-74
2022/08/13 12:09:32;;;;;;;2.30;2.10;;;33.00;55.40;;;;;;5091112;28;20968;-75
2022/08/13 12:11:59;;;;;;;3.30;2.20;;;32.90;56.10;;;;;;5090977;28;20480;-73
2022/08/13 12:14:26;;;;;;;2.77;2.17;;;32.70;55.50;;;;;;5091115;28;20507;-74
2022/08/13 12:16:53;;;;;;;2.93;2.13;;;32.00;56.40;;;;;;5091186;28;20459;-75
2022/08/13 12:19:22;;;;;;;2.23;2.03;;;31.60;57.30;;;;;;5090959;28;20452;-74
2022/08/13 12:21:50;;;;;;;2.70;1.97;;;31.70;57.60;;;;;;5090888;28;21023;-76
2022/08/13 12:24:18;;;;;;;2.87;1.90;;;31.90;57.90;;;;;;5072963;28;20475;-74
2022/08/13 12:26:47;;;;;;;2.90;2.00;;;32.00;56.20;;;;;;5090967;28;20463;-74
2022/08/13 12:29:14;;;;;;;2.37;1.87;;;32.00;56.00;;;;;;5090616;28;20824;-74
2022/08/13 12:31:41;;;;;;;3.20;1.90;;;31.80;56.20;;;;;;5090822;28;20529;-75
2022/08/13 12:34:08;;;;;;;2.50;2.00;;;31.70;56.20;;;;;;5090878;28;20448;-75
2022/08/13 12:36:36;;;;;;;3.77;2.30;;;31.40;56.30;;;;;;5090787;28;20452;-74
2022/08/13 12:39:04;;;;;;;2.73;2.00;;;31.60;56.40;;;;;;5090836;28;20464;-76
2022/08/13 12:41:33;;;;;;;1.80;1.80;;;31.70;57.00;;;;;;5091627;28;20459;-75
2022/08/13 12:44:00;;;;;;;2.70;2.20;;;31.90;56.90;;;;;;5094447;28;20459;-72
2022/08/13 12:46:27;;;;;;;2.43;2.10;;;32.20;56.00;;;;;;5094418;28;20463;-72
2022/08/13 12:48:58;;;;;;;3.70;2.40;;;32.60;55.50;;;;;;5094523;28;20458;-74
2022/08/13 12:51:25;;;;;;;2.03;1.83;;;32.90;55.30;;;;;;5094550;28;20576;-72
2022/08/13 12:53:53;;;;;;;2.70;2.20;;;33.10;54.70;;;;;;5095120;28;20444;-73
2022/08/13 12:56:20;;;;;;;1.80;1.60;;;33.50;54.00;;;;;;5095310;28;20462;-74
2022/08/13 12:58:48;;;;;;;2.70;2.20;;;33.80;52.70;;;;;;5095101;28;20462;-74
2022/08/13 13:01:15;;;;;;;2.57;2.00;;;33.80;52.90;;;;;;5084359;28;20479;-73
2022/08/13 13:03:42;;;;;;;2.70;2.20;;;33.90;52.80;;;;;;5055095;28;20453;-74
2022/08/13 13:06:10;;;;;;;3.20;2.20;;;34.10;51.90;;;;;;5054990;28;20529;-74
2022/08/13 13:08:38;;;;;;;3.60;2.80;;;34.40;51.40;;;;;;5054604;28;20461;-74
2022/08/13 13:11:08;;;;;;;2.40;1.88;;;34.40;51.20;;;;;;5054436;28;20448;-74
2022/08/13 13:13:35;;;;;;;2.73;2.20;;;34.40;51.80;;;;;;5056901;28;20237;-74
2022/08/13 13:16:07;;;;;;;3.80;2.23;;;34.60;52.50;;;;;;5074335;28;20983;-74